createdAt,value
2022-10-16T00:00:53.193Z,3.13
2022-10-16T00:03:19.398Z,2.65
2022-10-16T00:05:45.595Z,2.80
2022-10-16T00:08:12.744Z,2.75
2022-10-16T00:10:39.084Z,2.30
2022-10-16T00:13:05.751Z,3.08
2022-10-16T00:15:34.201Z,2.60
2022-10-16T00:18:00.375Z,2.53
2022-10-16T00:20:26.643Z,2.85
2022-10-16T00:22:52.889Z,2.28
2022-10-16T00:25:19.193Z,2.25
2022-10-16T00:27:45.446Z,2.47
2022-10-16T00:30:12.301Z,2.30
2022-10-16T00:32:38.526Z,2.30
2022-10-16T00:35:04.951Z,1.88
2022-10-16T00:37:31.163Z,2.30
2022-10-16T00:39:57.340Z,2.30
2022-10-16T00:42:23.813Z,2.85
2022-10-16T00:44:58.449Z,2.35
2022-10-16T00:47:50.032Z,2.40
2022-10-16T00:50:28.112Z,2.50
2022-10-16T00:52:54.663Z,2.72
2022-10-16T00:55:20.998Z,2.65
2022-10-16T00:57:47.483Z,2.65
2022-10-16T01:00:16.559Z,2.85
2022-10-16T01:02:42.862Z,2.40
2022-10-16T01:05:09.414Z,2.50
2022-10-16T01:07:54.678Z,2.67
2022-10-16T01:10:38.827Z,2.60
2022-10-16T01:13:05.010Z,2.17
2022-10-16T01:15:47.358Z,2.40
2022-10-16T01:18:17.863Z,1.95
2022-10-16T01:20:52.360Z,2.13
2022-10-16T01:23:21.560Z,2.33
2022-10-16T01:26:03.742Z,2.35
2022-10-16T01:28:35.294Z,2.15
2022-10-16T01:33:34.600Z,2.35
2022-10-16T01:36:03.796Z,2.33
2022-10-16T01:38:37.920Z,1.92
2022-10-16T01:41:25.774Z,2.17
2022-10-16T01:44:06.613Z,2.25
2022-10-16T01:46:33.854Z,2.40
2022-10-16T01:49:01.342Z,2.15
2022-10-16T01:51:29.730Z,2.28
2022-10-16T01:53:57.810Z,2.40
2022-10-16T01:56:25.508Z,2.25
2022-10-16T01:59:02.870Z,2.05
2022-10-16T02:01:31.647Z,2.33
2022-10-16T02:04:00.003Z,1.92
2022-10-16T02:06:26.700Z,1.90
2022-10-16T02:08:52.910Z,2.00
2022-10-16T02:11:19.131Z,1.90
2022-10-16T02:13:51.843Z,1.85
2022-10-16T02:16:18.274Z,2.20
2022-10-16T02:18:44.690Z,2.17
2022-10-16T02:21:17.373Z,2.20
2022-10-16T02:23:58.072Z,2.10
2022-10-16T02:26:30.123Z,2.60
2022-10-16T02:28:58.739Z,2.15
2022-10-16T02:31:28.609Z,2.05
2022-10-16T02:33:56.433Z,2.65
2022-10-16T02:36:22.886Z,2.63
2022-10-16T02:38:49.118Z,2.30
2022-10-16T02:41:15.561Z,2.40
2022-10-16T02:43:41.783Z,2.35
2022-10-16T02:46:08.026Z,2.38
2022-10-16T02:48:34.337Z,2.28
2022-10-16T02:51:00.561Z,2.40
2022-10-16T02:53:26.786Z,2.60
2022-10-16T02:55:52.977Z,2.50
2022-10-16T02:58:19.207Z,2.22
2022-10-16T03:00:45.454Z,2.15
2022-10-16T03:03:11.681Z,2.00
2022-10-16T03:05:37.882Z,2.00
2022-10-16T03:08:04.183Z,2.08
2022-10-16T03:10:30.448Z,2.00
2022-10-16T03:12:56.654Z,1.92
2022-10-16T03:15:22.890Z,1.95
2022-10-16T03:17:49.182Z,2.20
2022-10-16T03:20:15.405Z,1.88
2022-10-16T03:22:41.691Z,1.75
2022-10-16T03:25:08.199Z,1.95
2022-10-16T03:27:34.428Z,1.80
2022-10-16T03:30:00.608Z,1.90
2022-10-16T03:32:26.876Z,1.85
2022-10-16T03:34:55.044Z,2.22
2022-10-16T03:37:21.238Z,2.03
2022-10-16T03:39:47.439Z,1.95
2022-10-16T03:42:13.878Z,2.00
2022-10-16T03:44:40.042Z,2.20
2022-10-16T03:47:06.263Z,1.90
2022-10-16T03:49:32.438Z,1.60
2022-10-16T03:51:58.837Z,1.75
2022-10-16T03:54:25.056Z,1.67
2022-10-16T03:56:51.269Z,1.83
2022-10-16T03:59:17.523Z,1.50
2022-10-16T04:01:43.861Z,1.90
2022-10-16T04:04:10.111Z,1.70
2022-10-16T04:06:36.319Z,1.52
2022-10-16T04:09:02.623Z,1.60
2022-10-16T04:11:28.819Z,1.95
2022-10-16T04:13:55.097Z,1.92
2022-10-16T04:16:21.343Z,1.60
2022-10-16T04:18:47.518Z,1.60
2022-10-16T04:21:13.721Z,2.05
2022-10-16T04:23:39.914Z,1.42
2022-10-16T04:26:06.273Z,1.40
2022-10-16T04:28:32.529Z,1.38
2022-10-16T04:30:58.776Z,1.40
2022-10-16T04:33:25.037Z,1.40
2022-10-16T04:35:57.210Z,1.60
2022-10-16T04:38:23.439Z,1.30
2022-10-16T04:40:49.630Z,1.83
2022-10-16T04:43:15.854Z,1.52
2022-10-16T04:45:42.078Z,1.90
2022-10-16T04:48:08.284Z,1.48
2022-10-16T04:50:34.473Z,1.40
2022-10-16T04:53:00.912Z,1.65
2022-10-16T04:55:27.288Z,1.50
2022-10-16T04:57:53.478Z,1.40
2022-10-16T05:00:19.694Z,1.48
2022-10-16T05:02:45.965Z,1.48
2022-10-16T05:05:12.632Z,1.80
2022-10-16T05:07:38.831Z,1.98
2022-10-16T05:10:05.252Z,1.60
2022-10-16T05:12:31.574Z,1.90
2022-10-16T05:14:59.594Z,2.38
2022-10-16T05:17:26.733Z,2.00
2022-10-16T05:19:53.339Z,1.98
2022-10-16T05:22:19.591Z,1.80
2022-10-16T05:24:45.884Z,1.65
2022-10-16T05:27:12.517Z,1.90
2022-10-16T05:29:38.715Z,1.40
2022-10-16T05:32:04.938Z,1.48
2022-10-16T05:34:31.154Z,1.67
2022-10-16T05:36:57.508Z,1.50
2022-10-16T05:39:23.770Z,1.90
2022-10-16T05:41:50.444Z,1.50
2022-10-16T05:44:16.782Z,1.40
2022-10-16T05:46:42.969Z,1.38
2022-10-16T05:49:09.178Z,1.75
2022-10-16T05:51:35.389Z,1.60
2022-10-16T05:54:01.615Z,1.58
2022-10-16T05:56:27.893Z,1.58
2022-10-16T05:58:54.099Z,1.60
2022-10-16T06:01:21.685Z,1.67
2022-10-16T06:03:47.983Z,1.80
2022-10-16T06:06:15.767Z,1.77
2022-10-16T06:08:42.514Z,1.80
2022-10-16T06:11:10.131Z,2.00
2022-10-16T06:13:36.633Z,1.90
2022-10-16T06:16:03.363Z,1.90
2022-10-16T06:18:29.618Z,2.00
2022-10-16T06:20:56.158Z,2.08
2022-10-16T06:23:22.773Z,2.08
2022-10-16T06:25:48.972Z,1.80
2022-10-16T06:28:15.559Z,1.83
2022-10-16T06:30:42.143Z,2.30
2022-10-16T06:33:08.328Z,2.00
2022-10-16T06:35:34.564Z,2.03
2022-10-16T06:38:00.759Z,2.17
2022-10-16T06:40:26.955Z,2.20
2022-10-16T06:42:55.430Z,1.77
2022-10-16T06:45:21.652Z,2.10
2022-10-16T06:47:47.886Z,1.80
2022-10-16T06:50:14.567Z,2.08
2022-10-16T06:52:40.796Z,1.80
2022-10-16T06:55:07.198Z,2.22
2022-10-16T06:57:33.448Z,2.15
2022-10-16T06:59:59.649Z,1.88
2022-10-16T07:02:26.119Z,1.85
2022-10-16T07:04:52.516Z,2.00
2022-10-16T07:07:18.747Z,1.92
2022-10-16T07:09:44.949Z,2.28
2022-10-16T07:12:11.156Z,2.05
2022-10-16T07:14:37.342Z,2.10
2022-10-16T07:17:03.575Z,2.10
2022-10-16T07:19:33.389Z,2.22
2022-10-16T07:22:00.623Z,1.77
2022-10-16T07:24:26.854Z,2.15
2022-10-16T07:26:53.099Z,1.70
2022-10-16T07:29:20.767Z,1.88
2022-10-16T07:31:47.663Z,1.90
2022-10-16T07:34:14.728Z,2.03
2022-10-16T07:39:12.278Z,1.40
2022-10-16T07:41:38.551Z,2.03
2022-10-16T07:44:04.879Z,2.00
2022-10-16T07:46:31.570Z,1.92
2022-10-16T07:48:57.763Z,1.60
2022-10-16T07:51:25.351Z,1.50
2022-10-16T07:53:52.077Z,1.60
2022-10-16T07:56:18.719Z,1.60
2022-10-16T07:58:45.101Z,1.40
2022-10-16T08:01:15.280Z,1.45
2022-10-16T08:03:45.399Z,1.67
2022-10-16T08:06:11.865Z,1.70
2022-10-16T08:08:38.133Z,1.70
2022-10-16T08:11:04.917Z,1.50
2022-10-16T08:13:31.701Z,1.50
2022-10-16T08:15:57.947Z,1.20
2022-10-16T08:18:24.172Z,1.70
2022-10-16T08:20:56.195Z,1.52
2022-10-16T08:23:22.386Z,1.27
2022-10-16T08:25:48.582Z,1.25
2022-10-16T08:28:15.017Z,1.13
2022-10-16T08:30:41.279Z,1.20
2022-10-16T08:33:07.483Z,1.10
2022-10-16T08:35:33.942Z,0.90
2022-10-16T08:38:00.246Z,0.93
2022-10-16T08:40:28.496Z,0.95
2022-10-16T08:43:01.579Z,1.13
2022-10-16T08:45:39.586Z,1.73
2022-10-16T08:48:14.646Z,3.30
2022-10-16T08:50:41.309Z,2.28
2022-10-16T08:53:08.021Z,1.80
2022-10-16T08:55:49.578Z,1.90
2022-10-16T08:58:20.271Z,1.30
2022-10-16T09:00:48.200Z,1.42
2022-10-16T09:03:41.160Z,1.55
2022-10-16T09:06:07.395Z,1.23
2022-10-16T09:08:45.803Z,1.13
2022-10-16T09:11:19.164Z,1.15
2022-10-16T09:13:56.505Z,0.60
2022-10-16T09:16:23.198Z,0.98
2022-10-16T09:18:55.522Z,0.47
2022-10-16T09:21:27.323Z,0.60
2022-10-16T09:23:54.785Z,0.52
2022-10-16T09:28:54.455Z,0.70
2022-10-16T09:31:21.629Z,0.50
2022-10-16T09:33:54.177Z,0.75
2022-10-16T09:36:21.262Z,0.75
2022-10-16T09:38:47.471Z,0.43
2022-10-16T09:41:18.498Z,0.60
2022-10-16T09:43:47.494Z,0.80
2022-10-16T09:46:25.821Z,0.75
2022-10-16T09:48:53.375Z,0.75
2022-10-16T09:51:22.596Z,0.73
2022-10-16T09:53:48.911Z,0.50
2022-10-16T09:56:25.882Z,0.40
2022-10-16T09:58:56.834Z,0.80
2022-10-16T10:01:24.902Z,0.50
2022-10-16T10:03:53.176Z,0.47
2022-10-16T10:06:19.404Z,0.65
2022-10-16T10:08:57.551Z,0.50
2022-10-16T10:11:38.830Z,0.38
2022-10-16T10:16:31.443Z,0.57
2022-10-16T10:19:00.868Z,0.40
2022-10-16T10:21:27.096Z,0.60
2022-10-16T10:23:57.713Z,0.40
2022-10-16T10:26:28.397Z,0.43
2022-10-16T10:29:13.150Z,0.40
2022-10-16T10:31:54.320Z,0.40
2022-10-16T10:34:31.615Z,0.43
2022-10-16T10:37:03.953Z,0.70
2022-10-16T10:39:35.777Z,0.43
2022-10-16T10:42:17.043Z,0.55
2022-10-16T10:44:58.346Z,0.50
2022-10-16T10:47:24.604Z,0.50
2022-10-16T10:49:50.838Z,0.60
2022-10-16T10:52:16.993Z,0.60
2022-10-16T10:54:56.569Z,0.60
2022-10-16T10:57:29.407Z,0.70
2022-10-16T10:59:58.439Z,0.60
2022-10-16T11:02:24.997Z,0.60
2022-10-16T11:04:59.816Z,0.50
2022-10-16T11:07:28.515Z,0.60
2022-10-16T11:09:58.535Z,0.65
2022-10-16T11:12:24.843Z,0.45
2022-10-16T11:15:08.354Z,0.50
2022-10-16T11:17:48.838Z,0.60
2022-10-16T11:20:27.162Z,0.70
2022-10-16T11:23:19.617Z,0.60
2022-10-16T11:25:46.394Z,0.60
2022-10-16T11:28:15.566Z,0.73
2022-10-16T11:30:45.051Z,0.60
2022-10-16T11:33:32.349Z,0.50
2022-10-16T11:36:07.345Z,0.60
2022-10-16T11:38:46.998Z,0.55
2022-10-16T11:41:13.191Z,0.50
2022-10-16T11:43:41.763Z,0.68
2022-10-16T11:46:18.459Z,0.50
2022-10-16T11:48:53.671Z,0.65
2022-10-16T11:51:22.878Z,0.50
2022-10-16T11:53:56.359Z,0.77
2022-10-16T11:56:22.586Z,0.40
2022-10-16T11:58:55.807Z,0.60
2022-10-16T12:01:41.449Z,0.50
2022-10-16T12:04:19.743Z,0.50
2022-10-16T12:06:45.937Z,0.60
2022-10-16T12:09:16.173Z,0.73
2022-10-16T12:11:42.466Z,0.70
2022-10-16T12:14:09.280Z,0.77
2022-10-16T12:16:38.121Z,1.20
2022-10-16T12:19:16.479Z,0.73
2022-10-16T12:21:43.422Z,0.57
2022-10-16T12:24:32.722Z,0.60
2022-10-16T12:26:59.077Z,0.47
2022-10-16T12:29:28.017Z,0.50
2022-10-16T12:31:58.426Z,0.40
2022-10-16T12:34:29.581Z,0.70
2022-10-16T12:36:56.855Z,0.47
2022-10-16T12:39:24.311Z,0.40
2022-10-16T12:42:02.045Z,0.50
2022-10-16T12:44:32.334Z,0.50
2022-10-16T12:46:58.589Z,0.40
2022-10-16T12:49:51.172Z,0.50
2022-10-16T12:52:26.564Z,0.30
2022-10-16T12:54:52.900Z,0.50
2022-10-16T12:57:35.488Z,0.40
2022-10-16T13:00:26.483Z,0.70
2022-10-16T13:02:55.644Z,0.65
2022-10-16T13:08:23.402Z,0.50
2022-10-16T13:10:52.665Z,0.50
2022-10-16T13:13:37.836Z,0.65
2022-10-16T13:16:09.608Z,0.60
2022-10-16T13:18:43.164Z,0.57
2022-10-16T13:21:09.421Z,0.80
2022-10-16T13:23:44.431Z,0.40
2022-10-16T13:26:29.810Z,0.50
2022-10-16T13:28:59.652Z,0.50
2022-10-16T13:31:26.080Z,0.57
2022-10-16T13:33:55.855Z,0.52
2022-10-16T13:36:23.553Z,0.68
2022-10-16T13:38:49.834Z,0.50
2022-10-16T13:41:18.274Z,0.60
2022-10-16T13:43:49.599Z,0.50
2022-10-16T13:48:42.744Z,0.60
2022-10-16T13:51:12.085Z,1.98
2022-10-16T13:53:38.502Z,0.80
2022-10-16T13:56:06.229Z,0.80
2022-10-16T13:58:32.791Z,0.60
2022-10-16T14:01:03.481Z,0.57
2022-10-16T14:03:31.139Z,0.80
2022-10-16T14:06:01.968Z,0.50
2022-10-16T14:08:29.160Z,0.60
2022-10-16T14:10:57.495Z,0.77
2022-10-16T14:13:29.259Z,0.55
2022-10-16T14:15:55.785Z,0.68
2022-10-16T14:18:25.991Z,0.40
2022-10-16T14:20:52.434Z,0.52
2022-10-16T14:23:29.744Z,0.60
2022-10-16T14:26:06.432Z,0.60
2022-10-16T14:28:32.684Z,0.60
2022-10-16T14:30:59.855Z,0.60
2022-10-16T14:33:29.692Z,0.60
2022-10-16T14:36:05.102Z,0.70
2022-10-16T14:38:31.757Z,0.80
2022-10-16T14:40:58.522Z,0.70
2022-10-16T14:43:36.699Z,0.60
2022-10-16T14:46:04.169Z,0.70
2022-10-16T14:48:30.672Z,0.70
2022-10-16T14:50:56.993Z,0.70
2022-10-16T14:53:23.168Z,0.57
2022-10-16T14:55:49.580Z,0.70
2022-10-16T14:58:20.904Z,0.77
2022-10-16T15:00:47.576Z,0.80
2022-10-16T15:03:14.094Z,0.90
2022-10-16T15:05:40.369Z,0.90
2022-10-16T15:08:06.570Z,0.70
2022-10-16T15:10:36.575Z,0.80
2022-10-16T15:13:02.947Z,0.70
2022-10-16T15:15:29.176Z,0.60
2022-10-16T15:18:01.387Z,1.20
2022-10-16T15:20:28.604Z,1.05
2022-10-16T15:22:55.080Z,0.90
2022-10-16T15:25:43.191Z,1.00
2022-10-16T15:28:10.223Z,0.90
2022-10-16T15:30:36.877Z,0.82
2022-10-16T15:33:03.478Z,0.80
2022-10-16T15:35:29.707Z,1.00
2022-10-16T15:37:56.126Z,0.90
2022-10-16T15:40:23.449Z,0.70
2022-10-16T15:42:49.966Z,1.02
2022-10-16T15:45:19.940Z,1.08
2022-10-16T15:47:46.386Z,0.82
2022-10-16T15:50:13.511Z,1.00
2022-10-16T15:52:40.369Z,0.70
2022-10-16T15:55:10.740Z,1.08
2022-10-16T15:57:39.137Z,0.90
2022-10-16T16:00:10.604Z,0.82
2022-10-16T16:02:37.291Z,1.35
2022-10-16T16:05:04.510Z,1.00
2022-10-16T16:07:33.449Z,1.20
2022-10-16T16:09:59.746Z,0.93
2022-10-16T16:12:26.361Z,0.93
2022-10-16T16:14:52.987Z,1.33
2022-10-16T16:17:19.247Z,1.45
2022-10-16T16:19:46.544Z,1.38
2022-10-16T16:22:13.497Z,1.20
2022-10-16T16:24:39.812Z,1.02
2022-10-16T16:27:05.997Z,1.17
2022-10-16T16:29:32.265Z,1.00
2022-10-16T16:32:00.110Z,0.90
2022-10-16T16:34:27.416Z,0.88
2022-10-16T16:36:54.256Z,0.82
2022-10-16T16:39:20.528Z,0.90
2022-10-16T16:41:46.928Z,1.13
2022-10-16T16:44:13.433Z,0.85
2022-10-16T16:46:40.442Z,0.90
2022-10-16T16:49:07.356Z,1.02
2022-10-16T16:51:37.002Z,0.90
2022-10-16T16:54:08.091Z,0.93
2022-10-16T16:56:34.500Z,1.30
2022-10-16T16:59:00.716Z,1.00
2022-10-16T17:01:27.754Z,1.10
2022-10-16T17:03:55.096Z,1.40
2022-10-16T17:06:22.374Z,1.40
2022-10-16T17:08:49.031Z,1.23
2022-10-16T17:11:17.025Z,2.03
2022-10-16T17:13:43.214Z,1.48
2022-10-16T17:16:10.003Z,1.20
2022-10-16T17:18:36.281Z,1.20
2022-10-16T17:21:04.236Z,1.10
2022-10-16T17:23:30.659Z,1.00
2022-10-16T17:25:56.998Z,1.10
2022-10-16T17:28:23.308Z,1.38
2022-10-16T17:30:49.719Z,1.48
2022-10-16T17:33:15.933Z,1.70
2022-10-16T17:35:46.621Z,1.45
2022-10-16T17:38:14.057Z,1.37
2022-10-16T17:40:40.552Z,1.40
2022-10-16T17:43:07.138Z,2.50
2022-10-16T17:45:37.059Z,4.55
2022-10-16T17:48:03.418Z,1.95
2022-10-16T17:50:29.814Z,2.53
2022-10-16T17:52:56.026Z,1.58
2022-10-16T17:55:26.348Z,2.03
2022-10-16T17:57:53.548Z,1.85
2022-10-16T18:00:20.050Z,2.08
2022-10-16T18:02:48.646Z,1.85
2022-10-16T18:05:14.902Z,1.90
2022-10-16T18:10:12.327Z,2.00
2022-10-16T18:12:38.779Z,2.22
2022-10-16T18:15:05.266Z,2.03
2022-10-16T18:17:33.727Z,1.90
2022-10-16T18:19:59.927Z,2.10
2022-10-16T18:22:27.410Z,1.77
2022-10-16T18:24:53.645Z,2.08
2022-10-16T18:27:19.866Z,1.92
2022-10-16T18:29:46.121Z,2.50
2022-10-16T18:32:12.348Z,2.10
2022-10-16T18:34:38.642Z,1.70
2022-10-16T18:37:04.896Z,2.00
2022-10-16T18:39:31.171Z,1.83
2022-10-16T18:41:59.750Z,1.92
2022-10-16T18:44:27.192Z,1.90
2022-10-16T18:46:57.284Z,1.83
2022-10-16T18:49:23.765Z,1.67
2022-10-16T18:51:52.763Z,1.80
2022-10-16T18:54:18.939Z,1.70
2022-10-16T18:56:45.135Z,1.55
2022-10-16T18:59:11.650Z,1.83
2022-10-16T19:01:38.749Z,1.52
2022-10-16T19:04:06.725Z,1.77
2022-10-16T19:06:33.884Z,1.75
2022-10-16T19:09:00.127Z,1.67
2022-10-16T19:11:26.515Z,1.60
2022-10-16T19:13:54.971Z,2.03
2022-10-16T19:16:22.949Z,2.53
2022-10-16T19:18:49.939Z,1.90
2022-10-16T19:21:16.514Z,2.13
2022-10-16T19:23:42.888Z,2.70
2022-10-16T19:26:10.442Z,1.92
2022-10-16T19:28:37.323Z,1.90
2022-10-16T19:31:13.784Z,2.00
2022-10-16T19:33:40.150Z,2.25
2022-10-16T19:36:10.256Z,2.03
2022-10-16T19:38:36.527Z,1.55
2022-10-16T19:41:06.915Z,2.13
2022-10-16T19:43:33.162Z,1.80
2022-10-16T19:46:02.796Z,1.98
2022-10-16T19:48:29.028Z,1.90
2022-10-16T19:50:55.316Z,1.70
2022-10-16T19:53:21.531Z,2.20
2022-10-16T19:55:48.082Z,2.40
2022-10-16T19:58:14.303Z,2.05
2022-10-16T20:00:43.566Z,2.10
2022-10-16T20:03:09.952Z,2.03
2022-10-16T20:05:36.137Z,2.08
2022-10-16T20:08:02.480Z,2.17
2022-10-16T20:10:28.797Z,2.03
2022-10-16T20:12:55.054Z,1.90
2022-10-16T20:15:21.284Z,2.30
2022-10-16T20:17:47.482Z,1.92
2022-10-16T20:20:14.236Z,2.30
2022-10-16T20:22:40.939Z,2.30
2022-10-16T20:25:10.044Z,2.50
2022-10-16T20:27:36.571Z,2.20
2022-10-16T20:30:03.065Z,2.22
2022-10-16T20:32:29.972Z,2.33
2022-10-16T20:34:56.162Z,2.25
2022-10-16T20:37:22.496Z,2.85
2022-10-16T20:39:48.744Z,2.35
2022-10-16T20:42:14.972Z,2.25
2022-10-16T20:44:41.151Z,2.53
2022-10-16T20:47:07.428Z,2.55
2022-10-16T20:49:40.851Z,3.55
2022-10-16T20:52:07.399Z,2.55
2022-10-16T20:54:33.786Z,3.33
2022-10-16T20:57:00.035Z,3.05
2022-10-16T20:59:26.255Z,2.97
2022-10-16T21:01:52.501Z,2.78
2022-10-16T21:04:18.800Z,3.05
2022-10-16T21:06:45.275Z,2.90
2022-10-16T21:09:11.568Z,2.65
2022-10-16T21:11:38.307Z,2.67
2022-10-16T21:14:05.239Z,2.92
2022-10-16T21:16:31.738Z,2.80
2022-10-16T21:18:58.368Z,3.15
2022-10-16T21:21:25.947Z,3.20
2022-10-16T21:23:52.553Z,3.33
2022-10-16T21:26:23.095Z,3.00
2022-10-16T21:28:49.460Z,3.53
2022-10-16T21:31:18.602Z,3.30
2022-10-16T21:33:45.018Z,3.70
2022-10-16T21:36:14.154Z,3.00
2022-10-16T21:38:40.463Z,3.20
2022-10-16T21:41:17.734Z,3.30
2022-10-16T21:43:43.990Z,3.88
2022-10-16T21:46:10.434Z,3.78
2022-10-16T21:48:37.039Z,3.30
2022-10-16T21:51:03.555Z,3.67
2022-10-16T21:53:29.783Z,3.67
2022-10-16T21:55:55.987Z,4.05
2022-10-16T21:58:22.224Z,3.75
2022-10-16T22:00:48.428Z,3.70
2022-10-16T22:03:14.625Z,3.40
2022-10-16T22:05:40.844Z,3.80
2022-10-16T22:08:07.407Z,3.50
2022-10-16T22:10:33.597Z,3.65
2022-10-16T22:12:59.800Z,3.90
2022-10-16T22:15:26.038Z,4.53
2022-10-16T22:17:52.252Z,4.00
2022-10-16T22:20:18.536Z,4.03
2022-10-16T22:22:44.767Z,4.65
2022-10-16T22:25:10.967Z,4.50
2022-10-16T22:27:37.176Z,4.45
2022-10-16T22:30:03.540Z,4.25
2022-10-16T22:32:29.849Z,4.10
2022-10-16T22:34:56.099Z,4.38
2022-10-16T22:37:22.335Z,4.72
2022-10-16T22:39:48.562Z,4.40
2022-10-16T22:42:14.780Z,4.25
2022-10-16T22:44:41.132Z,3.95
2022-10-16T22:47:07.520Z,4.40
2022-10-16T22:49:33.794Z,4.53
2022-10-16T22:52:00.078Z,4.72
2022-10-16T22:54:26.631Z,4.38
2022-10-16T22:56:53.036Z,4.35
2022-10-16T22:59:19.281Z,4.55
2022-10-16T23:01:45.514Z,4.43
2022-10-16T23:04:11.767Z,4.47
2022-10-16T23:06:38.122Z,5.05
2022-10-16T23:09:04.607Z,4.80
2022-10-16T23:11:30.872Z,4.93
2022-10-16T23:13:57.524Z,4.70
2022-10-16T23:16:24.320Z,4.57
2022-10-16T23:18:50.551Z,4.80
2022-10-16T23:21:18.418Z,4.70
2022-10-16T23:23:45.037Z,4.88
2022-10-16T23:26:12.554Z,5.13
2022-10-16T23:28:39.191Z,5.35
2022-10-16T23:31:06.370Z,4.70
2022-10-16T23:33:33.438Z,4.88
2022-10-16T23:35:59.920Z,5.45
2022-10-16T23:38:26.307Z,4.70
2022-10-16T23:40:52.540Z,4.72
2022-10-16T23:43:18.735Z,4.65
2022-10-16T23:45:44.991Z,4.78
2022-10-16T23:48:11.191Z,5.65
2022-10-16T23:50:37.439Z,5.03
2022-10-16T23:53:06.554Z,5.13
2022-10-16T23:55:35.631Z,4.88
2022-10-16T23:58:01.875Z,5.55
